createdAt,value
2023-05-10T00:02:08.835Z,100608.34
2023-05-10T00:04:43.652Z,100604.94
2023-05-10T04:32:55.800Z,100535.69
2023-05-10T04:35:30.930Z,100535.69
2023-05-10T04:38:05.229Z,100540.09
2023-05-10T04:40:39.919Z,100542.81
2023-05-10T04:43:14.182Z,100545.75
2023-05-10T04:45:48.928Z,100555.47
2023-05-10T04:48:24.651Z,100549.91
2023-05-10T04:50:59.323Z,100552.72
2023-05-10T04:53:33.631Z,100555.31
2023-05-10T04:56:09.136Z,100551.34
2023-05-10T04:58:43.469Z,100549.31
2023-05-10T05:01:18.551Z,100548.72
2023-05-10T05:03:54.851Z,100553.91
2023-05-10T05:06:29.670Z,100557.28
2023-05-10T05:09:04.032Z,100552.41
2023-05-10T05:11:38.707Z,100558.84
2023-05-10T05:14:13.071Z,100554.41
2023-05-10T05:16:47.781Z,100554.66
2023-05-10T05:19:23.720Z,100555.09
2023-05-10T05:21:58.356Z,100564.91
2023-05-10T05:24:39.246Z,100568.91
2023-05-10T05:27:14.119Z,100568.75
2023-05-10T05:29:48.496Z,100564.00
2023-05-10T05:32:23.283Z,100563.03
2023-05-10T05:34:58.979Z,100558.59
2023-05-10T05:37:33.575Z,100556.97
2023-05-10T05:40:09.003Z,100571.44
2023-05-10T05:42:43.759Z,100562.00
2023-05-10T05:45:18.364Z,100561.50
2023-05-10T05:47:53.301Z,100566.09
2023-05-10T05:50:29.075Z,100568.38
2023-05-10T05:53:03.698Z,100567.50
2023-05-10T05:55:38.105Z,100569.13
2023-05-10T05:58:13.130Z,100573.41
2023-05-10T06:03:31.608Z,100557.69
2023-05-10T06:06:07.081Z,100557.69
2023-05-10T06:08:41.411Z,100571.72
2023-05-10T06:11:16.143Z,100567.69
2023-05-10T06:13:50.589Z,100565.50
2023-05-10T06:16:25.205Z,100566.81
2023-05-10T06:19:00.983Z,100567.69
2023-05-10T06:21:35.723Z,100570.75
2023-05-10T06:24:10.310Z,100570.91
2023-05-10T06:26:44.854Z,100576.50
2023-05-10T06:29:19.316Z,100567.84
2023-05-10T06:31:54.035Z,100576.59
2023-05-10T06:34:29.717Z,100576.41
2023-05-10T06:37:04.711Z,100577.66
2023-05-10T06:39:39.069Z,100575.41
2023-05-10T06:42:13.774Z,100579.81
2023-05-10T06:44:53.917Z,100588.47
2023-05-10T06:47:28.964Z,100573.50
2023-05-10T06:50:05.103Z,100576.59
2023-05-10T06:52:59.666Z,100583.94
2023-05-10T06:55:54.007Z,100569.88
2023-05-10T06:58:28.977Z,100576.03
2023-05-10T07:01:06.636Z,100566.88
2023-05-10T07:03:41.617Z,100577.41
2023-05-10T07:06:29.361Z,100579.44
2023-05-10T07:09:08.780Z,100567.69
2023-05-10T07:11:43.108Z,100576.22
2023-05-10T07:14:18.524Z,100573.00
2023-05-10T07:16:52.962Z,100569.56
2023-05-10T07:19:27.585Z,100563.72
2023-05-10T07:22:03.308Z,100564.75
2023-05-10T07:24:38.197Z,100571.63
2023-05-10T07:27:12.557Z,100575.94
2023-05-10T07:29:47.205Z,100567.25
2023-05-10T07:32:21.562Z,100571.69
2023-05-10T07:34:56.540Z,100563.44
2023-05-10T07:37:32.257Z,100554.97
2023-05-10T07:40:08.173Z,100562.91
2023-05-10T07:42:42.521Z,100566.16
2023-05-10T07:45:17.581Z,100564.53
2023-05-10T07:47:52.269Z,100563.22
2023-05-10T07:50:27.128Z,100554.28
2023-05-10T07:53:03.266Z,100559.16
2023-05-10T07:55:37.914Z,100545.03
2023-05-10T07:58:12.399Z,100544.94
2023-05-10T08:00:47.039Z,100551.47
2023-05-10T08:03:21.658Z,100548.41
2023-05-10T08:05:56.206Z,100551.25
2023-05-10T08:08:32.268Z,100552.88
2023-05-10T08:11:06.645Z,100555.31
2023-05-10T08:13:41.303Z,100543.94
2023-05-10T08:16:15.764Z,100550.19
2023-05-10T08:18:51.975Z,100549.34
2023-05-10T08:21:27.186Z,100543.88
2023-05-10T08:24:03.198Z,100546.50
2023-05-10T08:26:37.524Z,100553.22
2023-05-10T08:29:12.161Z,100548.09
2023-05-10T08:31:46.448Z,100548.09
2023-05-10T08:34:21.273Z,100539.25
2023-05-10T08:36:55.964Z,100537.66
2023-05-10T08:39:32.501Z,100535.75
2023-05-10T08:42:07.879Z,100546.25
2023-05-10T08:44:43.132Z,100550.56
2023-05-10T08:47:20.446Z,100540.19
2023-05-10T08:49:57.303Z,100543.19
2023-05-10T08:52:33.053Z,100541.50
2023-05-10T08:55:09.689Z,100540.75
2023-05-10T08:57:44.193Z,100545.22
2023-05-10T09:00:20.277Z,100551.06
2023-05-10T09:02:56.014Z,100549.78
2023-05-10T14:03:16.054Z,100314.44
2023-05-10T14:05:50.983Z,100314.44
2023-05-10T14:08:25.239Z,100317.47
2023-05-10T14:10:59.856Z,100313.47
2023-05-10T14:13:34.181Z,100309.84
2023-05-10T14:16:09.259Z,100307.66
2023-05-10T14:18:44.918Z,100299.16
2023-05-10T14:21:19.570Z,100310.00
2023-05-10T14:23:53.769Z,100311.87
2023-05-10T14:26:28.556Z,100313.56
2023-05-10T14:29:03.374Z,100306.31
2023-05-10T14:31:38.039Z,100309.62
2023-05-10T14:34:13.734Z,100303.81
2023-05-10T14:36:48.298Z,100309.09
2023-05-10T14:39:22.655Z,100305.16
2023-05-10T14:41:57.186Z,100304.56
2023-05-10T14:44:31.654Z,100304.97
2023-05-10T14:47:06.263Z,100296.25
2023-05-10T14:49:42.105Z,100298.00
2023-05-10T14:52:16.773Z,100295.84
2023-05-10T14:54:51.012Z,100286.38
2023-05-10T14:57:25.742Z,100286.00
2023-05-10T15:00:00.251Z,100280.66
2023-05-10T15:02:35.680Z,100279.03
2023-05-10T15:05:11.722Z,100289.81
2023-05-10T15:07:46.692Z,100297.75
2023-05-10T15:10:21.033Z,100298.69
2023-05-10T15:12:55.532Z,100294.87
2023-05-10T15:15:29.838Z,100297.31
2023-05-10T15:18:04.452Z,100291.78
2023-05-10T15:20:40.112Z,100296.50
2023-05-10T15:23:14.728Z,100286.72
2023-05-10T15:25:50.750Z,100283.31
2023-05-10T15:28:25.293Z,100292.47
2023-05-10T15:30:59.541Z,100297.53
2023-05-10T15:33:34.084Z,100297.63
2023-05-10T15:36:09.778Z,100294.00
2023-05-10T15:38:44.218Z,100292.56
2023-05-10T15:41:18.352Z,100292.88
2023-05-10T15:43:52.796Z,100285.00
2023-05-10T15:46:27.174Z,100295.84
2023-05-10T15:49:02.001Z,100292.72
2023-05-10T15:51:37.663Z,100294.16
2023-05-10T15:54:12.275Z,100282.28
2023-05-10T15:56:46.632Z,100280.44
2023-05-10T15:59:21.396Z,100271.97
2023-05-10T16:01:55.961Z,100273.94
2023-05-10T16:04:30.885Z,100259.38
2023-05-10T16:07:06.619Z,100269.62
2023-05-10T16:09:41.439Z,100271.97
2023-05-10T16:12:15.790Z,100278.59
2023-05-10T16:14:50.413Z,100275.88
2023-05-10T16:17:24.945Z,100273.56
2023-05-10T16:19:59.661Z,100272.53
2023-05-10T16:22:35.445Z,100269.91
2023-05-10T20:30:12.865Z,100413.97
2023-05-10T20:32:48.112Z,100413.97
2023-05-10T20:35:22.563Z,100416.37
2023-05-10T20:37:57.103Z,100409.00
2023-05-10T20:40:31.561Z,100418.00
2023-05-10T20:43:06.485Z,100424.03
2023-05-10T20:45:42.274Z,100420.19
2023-05-10T20:48:17.704Z,100420.19
2023-05-10T20:50:52.362Z,100423.94
2023-05-10T20:53:27.156Z,100423.50
2023-05-10T20:56:01.527Z,100430.47
2023-05-10T20:58:36.332Z,100431.00
2023-05-10T21:01:12.535Z,100418.06
2023-05-10T21:03:47.234Z,100430.53
2023-05-10T21:06:21.510Z,100421.94
2023-05-10T21:08:56.056Z,100432.00
2023-05-10T21:11:30.688Z,100424.44
2023-05-10T21:14:05.667Z,100414.16
2023-05-10T21:16:41.507Z,100420.69
2023-05-10T21:19:17.250Z,100414.81
2023-05-10T21:21:51.553Z,100424.94
2023-05-10T21:24:26.289Z,100421.00
2023-05-10T21:27:00.548Z,100424.28
2023-05-10T21:29:35.176Z,100421.59
2023-05-10T21:32:11.089Z,100424.47
2023-05-10T21:34:45.726Z,100417.25
2023-05-10T21:37:20.007Z,100423.87
2023-05-10T21:39:54.634Z,100426.50
2023-05-10T21:42:29.002Z,100426.69
2023-05-10T21:45:03.696Z,100422.69
2023-05-10T21:47:39.480Z,100427.41
2023-05-10T21:50:14.161Z,100427.03
2023-05-10T21:52:48.449Z,100425.38
2023-05-10T21:55:23.106Z,100424.47
2023-05-10T21:57:57.879Z,100421.66
2023-05-10T22:03:15.993Z,100421.22
2023-05-10T22:05:51.135Z,100421.22
2023-05-10T22:08:25.761Z,100430.31
2023-05-10T22:11:00.344Z,100427.41
2023-05-10T22:13:34.627Z,100428.13
2023-05-10T22:16:09.589Z,100436.16
2023-05-10T22:18:45.834Z,100436.34
2023-05-10T22:21:21.184Z,100436.38
2023-05-10T22:23:55.403Z,100436.94
2023-05-10T22:26:29.982Z,100431.41
2023-05-10T22:29:04.321Z,100434.88
2023-05-10T22:31:39.036Z,100424.34
2023-05-10T22:34:14.804Z,100435.59
2023-05-10T22:36:50.529Z,100428.66
2023-05-10T22:39:24.838Z,100432.38
2023-05-10T22:41:59.473Z,100440.13
2023-05-10T22:44:33.727Z,100433.91
2023-05-10T22:47:09.122Z,100438.09
2023-05-10T22:49:44.818Z,100435.75
2023-05-10T22:52:19.365Z,100431.81
2023-05-10T22:54:53.661Z,100433.25
2023-05-10T22:57:28.457Z,100431.25
2023-05-10T23:00:04.482Z,100432.22
2023-05-10T23:02:39.309Z,100430.56
2023-05-10T23:05:15.072Z,100430.19
2023-05-10T23:07:53.324Z,100433.66
2023-05-10T23:10:28.010Z,100429.34
2023-05-10T23:13:02.815Z,100434.31
2023-05-10T23:15:37.362Z,100430.50
2023-05-10T23:18:12.906Z,100435.00
2023-05-10T23:20:48.607Z,100439.28
2023-05-10T23:23:23.294Z,100435.47
2023-05-10T23:25:57.661Z,100437.94
2023-05-10T23:28:32.299Z,100434.41
2023-05-10T23:31:06.662Z,100441.78
2023-05-10T23:33:41.307Z,100436.44
2023-05-10T23:36:17.040Z,100432.72
2023-05-10T23:38:51.672Z,100430.31
2023-05-10T23:41:26.604Z,100429.66
2023-05-10T23:44:02.324Z,100430.31
2023-05-10T23:46:36.902Z,100433.78
2023-05-10T23:49:11.493Z,100431.69
2023-05-10T23:51:47.455Z,100435.03
2023-05-10T23:54:22.262Z,100440.84
2023-05-10T23:56:56.506Z,100437.50
2023-05-10T23:59:31.157Z,100438.16
